createdAt,value
2022-08-07T00:01:43.196Z,1.50
2022-08-07T00:06:29.316Z,1.85
2022-08-07T00:11:35.785Z,1.50
2022-08-07T00:16:50.292Z,1.60
2022-08-07T00:21:57.224Z,1.70
2022-08-07T00:27:07.580Z,1.63
2022-08-07T00:32:13.452Z,1.40
2022-08-07T00:37:16.435Z,1.30
2022-08-07T00:42:18.298Z,1.40
2022-08-07T00:48:08.462Z,1.33
2022-08-07T00:52:49.183Z,1.27
2022-08-07T00:57:55.963Z,1.17
2022-08-07T01:02:58.228Z,1.23
2022-08-07T01:07:59.881Z,1.25
2022-08-07T01:13:02.772Z,1.38
2022-08-07T01:18:05.496Z,1.20
2022-08-07T01:23:12.965Z,1.23
2022-08-07T01:28:15.312Z,1.25
2022-08-07T01:33:17.460Z,1.13
2022-08-07T01:38:25.575Z,1.20
2022-08-07T01:43:34.751Z,1.10
2022-08-07T01:48:42.187Z,1.13
2022-08-07T01:54:11.954Z,1.10
2022-08-07T01:59:22.535Z,1.05
2022-08-07T02:04:35.799Z,1.30
2022-08-07T02:09:52.694Z,1.13
2022-08-07T02:15:01.555Z,1.35
2022-08-07T02:20:17.545Z,1.27
2022-08-07T02:26:10.449Z,1.30
2022-08-07T02:30:50.567Z,1.20
2022-08-07T02:36:29.456Z,1.15
2022-08-07T02:41:15.835Z,1.38
2022-08-07T02:46:26.337Z,1.30
2022-08-07T02:51:42.735Z,1.20
2022-08-07T02:56:53.554Z,1.13
2022-08-07T03:01:57.662Z,1.20
2022-08-07T03:07:07.300Z,1.10
2022-08-07T03:12:21.845Z,1.20
2022-08-07T03:17:24.926Z,1.10
2022-08-07T03:22:29.570Z,1.27
2022-08-07T03:27:59.541Z,1.20
2022-08-07T03:32:59.352Z,1.25
2022-08-07T03:38:04.770Z,1.30
2022-08-07T03:43:10.051Z,1.40
2022-08-07T03:48:16.011Z,1.40
2022-08-07T03:53:17.755Z,1.40
2022-08-07T03:59:05.551Z,1.60
2022-08-07T04:03:53.650Z,1.38
2022-08-07T04:08:57.815Z,1.50
2022-08-07T04:14:11.025Z,1.50
2022-08-07T04:19:34.021Z,1.40
2022-08-07T04:24:48.877Z,1.60
2022-08-07T04:30:02.011Z,1.67
2022-08-07T04:35:07.169Z,1.50
2022-08-07T04:40:13.244Z,1.55
2022-08-07T04:45:19.703Z,1.60
2022-08-07T04:50:52.019Z,1.70
2022-08-07T04:58:11.156Z,1.42
2022-08-07T05:01:32.371Z,1.50
2022-08-07T05:06:43.385Z,1.65
2022-08-07T05:11:57.716Z,1.60
2022-08-07T05:17:05.764Z,1.90
2022-08-07T05:22:26.608Z,1.60
2022-08-07T05:28:02.943Z,2.05
2022-08-07T05:32:55.383Z,1.75
2022-08-07T05:38:08.847Z,1.70
2022-08-07T05:43:12.053Z,1.85
2022-08-07T05:48:15.363Z,1.60
2022-08-07T05:54:12.531Z,1.60
2022-08-07T05:58:41.177Z,1.50
2022-08-07T06:04:01.011Z,1.55
2022-08-07T06:09:05.032Z,1.30
2022-08-07T06:14:12.467Z,1.63
2022-08-07T06:19:48.048Z,1.50
2022-08-07T06:24:52.686Z,1.63
2022-08-07T06:30:01.287Z,1.50
2022-08-07T06:35:10.511Z,1.30
2022-08-07T06:40:21.277Z,1.40
2022-08-07T06:45:24.824Z,1.65
2022-08-07T06:50:27.548Z,1.15
2022-08-07T06:55:47.971Z,1.40
2022-08-07T07:00:57.202Z,1.52
2022-08-07T07:06:04.323Z,1.20
2022-08-07T07:11:13.508Z,1.27
2022-08-07T07:16:45.341Z,1.27
2022-08-07T07:22:12.175Z,1.48
2022-08-07T07:27:21.476Z,1.10
2022-08-07T07:32:25.140Z,1.30
2022-08-07T07:37:49.445Z,1.10
2022-08-07T07:42:55.480Z,1.02
2022-08-07T07:47:59.223Z,1.13
2022-08-07T07:53:03.049Z,1.40
2022-08-07T07:58:06.468Z,1.00
2022-08-07T08:03:16.545Z,1.20
2022-08-07T08:08:34.308Z,1.30
2022-08-07T08:13:54.130Z,1.27
2022-08-07T08:19:00.458Z,1.50
2022-08-07T08:24:44.789Z,0.80
2022-08-07T08:30:03.948Z,0.75
2022-08-07T08:35:09.643Z,1.40
2022-08-07T08:40:28.625Z,0.93
2022-08-07T08:45:59.197Z,0.60
2022-08-07T08:51:26.078Z,0.70
2022-08-07T08:56:51.132Z,0.60
2022-08-07T09:02:14.427Z,0.65
2022-08-07T09:07:26.302Z,0.55
2022-08-07T09:12:53.581Z,0.63
2022-08-07T09:18:22.482Z,0.55
2022-08-07T09:24:49.081Z,0.90
2022-08-07T09:30:00.792Z,0.60
2022-08-07T09:36:02.926Z,0.57
2022-08-07T09:41:08.629Z,0.40
2022-08-07T09:47:24.874Z,0.63
2022-08-07T09:52:10.379Z,0.57
2022-08-07T09:57:56.029Z,0.47
2022-08-07T10:04:04.943Z,0.80
2022-08-07T10:09:15.398Z,0.63
2022-08-07T10:14:47.441Z,0.50
2022-08-07T10:20:30.395Z,0.77
2022-08-07T10:26:03.172Z,1.25
2022-08-07T10:31:39.128Z,1.60
2022-08-07T10:37:18.728Z,0.70
2022-08-07T10:42:53.546Z,0.60
2022-08-07T10:48:20.699Z,1.00
2022-08-07T10:53:44.343Z,0.70
2022-08-07T10:58:59.762Z,1.92
2022-08-07T11:04:32.014Z,0.52
2022-08-07T11:10:09.859Z,0.63
2022-08-07T11:15:17.683Z,0.50
2022-08-07T11:20:49.178Z,0.60
2022-08-07T11:26:28.729Z,0.60
2022-08-07T11:31:49.026Z,0.50
2022-08-07T11:37:57.937Z,0.55
2022-08-07T11:43:29.550Z,0.50
2022-08-07T11:49:50.804Z,0.60
2022-08-07T11:55:18.698Z,0.60
2022-08-07T12:01:01.683Z,0.80
2022-08-07T12:06:37.484Z,0.50
2022-08-07T12:12:09.143Z,0.60
2022-08-07T12:17:19.738Z,0.60
2022-08-07T12:22:36.985Z,0.60
2022-08-07T12:28:04.033Z,0.73
2022-08-07T12:33:23.268Z,0.52
2022-08-07T12:38:42.496Z,0.90
2022-08-07T12:44:04.500Z,0.60
2022-08-07T12:49:39.544Z,1.33
2022-08-07T12:55:05.382Z,0.60
2022-08-07T13:00:16.301Z,0.60
2022-08-07T13:06:02.631Z,0.60
2022-08-07T13:11:14.229Z,0.63
2022-08-07T13:16:31.159Z,0.50
2022-08-07T13:21:54.941Z,0.40
2022-08-07T13:27:24.794Z,1.00
2022-08-07T13:33:01.512Z,0.52
2022-08-07T13:38:24.489Z,0.50
2022-08-07T13:43:28.103Z,0.50
2022-08-07T13:48:39.079Z,0.50
2022-08-07T13:54:00.826Z,0.50
2022-08-07T13:59:12.151Z,0.50
2022-08-07T14:04:21.505Z,0.50
2022-08-07T14:10:01.950Z,0.60
2022-08-07T14:15:01.511Z,0.75
2022-08-07T14:20:40.657Z,0.50
2022-08-07T14:25:39.368Z,0.40
2022-08-07T14:30:46.803Z,0.50
2022-08-07T14:35:59.674Z,0.40
2022-08-07T14:41:12.331Z,0.40
2022-08-07T14:46:20.946Z,0.35
2022-08-07T14:56:57.383Z,0.40
2022-08-07T15:02:33.961Z,0.60
2022-08-07T15:07:51.314Z,0.40
2022-08-07T15:13:11.402Z,0.50
2022-08-07T15:25:15.650Z,0.40
2022-08-07T15:30:08.799Z,0.40
2022-08-07T15:51:10.088Z,0.30
2022-08-07T15:56:15.530Z,0.50
2022-08-07T16:01:39.097Z,1.00
2022-08-07T16:07:00.082Z,0.63
2022-08-07T16:13:01.031Z,0.50
2022-08-07T16:19:03.867Z,0.50
2022-08-07T16:24:34.924Z,0.40
2022-08-07T16:30:11.748Z,2.78
2022-08-07T16:35:56.674Z,0.88
2022-08-07T16:41:04.282Z,1.73
2022-08-07T16:47:06.064Z,1.92
2022-08-07T16:52:52.467Z,0.55
2022-08-07T16:58:02.321Z,0.65
2022-08-07T17:03:11.423Z,0.60
2022-08-07T17:09:04.243Z,0.45
2022-08-07T17:14:19.091Z,0.60
2022-08-07T17:20:00.993Z,0.73
2022-08-07T17:25:10.729Z,0.60
2022-08-07T17:30:20.083Z,0.80
2022-08-07T17:35:50.809Z,0.85
2022-08-07T17:42:03.755Z,1.95
2022-08-07T17:47:16.857Z,0.70
2022-08-07T17:52:39.575Z,0.70
2022-08-07T17:57:58.801Z,0.68
2022-08-07T18:03:28.420Z,1.00
2022-08-07T18:09:02.283Z,0.73
2022-08-07T18:14:26.129Z,2.50
2022-08-07T18:21:03.338Z,0.98
2022-08-07T18:25:24.276Z,0.60
2022-08-07T18:30:57.060Z,0.80
2022-08-07T18:36:32.622Z,0.90
2022-08-07T18:42:34.836Z,0.80
2022-08-07T18:48:00.577Z,0.90
2022-08-07T18:53:39.238Z,0.88
2022-08-07T18:59:47.412Z,0.88
2022-08-07T19:05:15.734Z,0.70
2022-08-07T19:10:31.613Z,0.73
2022-08-07T19:16:04.215Z,1.02
2022-08-07T19:21:45.028Z,1.00
2022-08-07T19:28:57.032Z,0.75
2022-08-07T19:32:25.840Z,0.90
2022-08-07T19:37:55.361Z,1.00
2022-08-07T19:43:00.084Z,0.90
2022-08-07T19:48:02.323Z,0.80
2022-08-07T19:54:33.669Z,1.17
2022-08-07T19:58:36.541Z,0.90
2022-08-07T20:03:38.547Z,1.13
2022-08-07T20:08:50.895Z,1.00
2022-08-07T20:13:55.142Z,1.00
2022-08-07T20:18:59.007Z,1.15
2022-08-07T20:24:05.953Z,1.00
2022-08-07T20:29:46.623Z,0.82
2022-08-07T20:34:50.291Z,0.90
2022-08-07T20:40:02.920Z,0.95
2022-08-07T20:46:24.539Z,0.80
2022-08-07T20:50:30.871Z,0.90
2022-08-07T20:55:35.819Z,0.95
2022-08-07T21:00:52.151Z,1.00
2022-08-07T21:06:21.433Z,0.95
2022-08-07T21:11:40.163Z,0.93
2022-08-07T21:18:00.890Z,1.00
2022-08-07T21:22:28.258Z,1.63
2022-08-07T21:27:54.997Z,1.10
2022-08-07T21:33:38.377Z,0.93
2022-08-07T21:39:05.541Z,1.10
2022-08-07T21:44:32.463Z,0.90
2022-08-07T21:50:02.475Z,1.00
2022-08-07T21:55:29.817Z,1.00
2022-08-07T22:00:32.859Z,1.20
2022-08-07T22:06:06.127Z,0.80
2022-08-07T22:11:11.031Z,1.00
2022-08-07T22:16:42.142Z,1.20
2022-08-07T22:22:10.783Z,1.10
2022-08-07T22:28:07.529Z,1.10
2022-08-07T22:33:06.199Z,1.02
2022-08-07T22:38:33.769Z,1.02
2022-08-07T22:43:54.624Z,1.17
2022-08-07T22:49:19.768Z,1.00
2022-08-07T22:54:53.825Z,1.30
2022-08-07T23:00:28.440Z,1.20
2022-08-07T23:06:10.126Z,1.30
2022-08-07T23:11:29.190Z,1.00
2022-08-07T23:16:54.552Z,1.10
2022-08-07T23:22:43.885Z,1.05
2022-08-07T23:28:22.947Z,1.35
2022-08-07T23:34:33.303Z,1.10
2022-08-07T23:39:46.728Z,1.00
2022-08-07T23:46:02.009Z,1.15
2022-08-07T23:50:56.892Z,1.13
2022-08-07T23:56:26.514Z,1.30
